Aviation Digital Data Service (ADDS)

Output produced by METARs form (2357 UTC 18 October 2019)
found at http://www.aviationweather.gov/metar/data/
 
KPAO 182347Z 31013KT 10SM SKC 19/07 A3007
KSQL 182250Z 30013KT 10SM FEW040 19/08 A3008
KSJC 182353Z 34014KT 10SM FEW026 FEW080 19/10 A3006 RMK AO2 SLP179 T01890100 10217 20183 53002
KSJC 182349Z 1900/1924 31014KT P6SM FEW035 SCT080 
     FM190300 31007KT P6SM FEW030 SCT040 SCT120 
     FM190600 VRB03KT P6SM FEW025 SCT035 BKN080 
     FM191800 31010KT P6SM SCT040 SCT100
       
KSFO 182256Z 28018KT 10SM FEW008 FEW015 SCT180 18/10 A3006 RMK AO2 SLP180 T01780100
KSFO 182349Z 1900/2006 28015G22KT P6SM FEW018 SCT150 
     FM190300 28012KT P6SM FEW012 FEW022 
     FM190500 VRB06KT P6SM SCT012 BKN100 
     FM191400 28010KT P6SM SCT011 BKN080 
     FM191700 28012G16KT P6SM SCT012 SCT025 BKN050 
     FM192100 28015G20KT P6SM FEW014 SCT030 SCT050 
     FM200300 28015KT P6SM FEW050
       
KHWD 182354Z 26014KT 10SM CLR 18/08 A3006 RMK AO2 SLP190 T01780083 10194 20161 58003
KOAK 182353Z 27017KT 10SM FEW012 FEW180 18/09 A3006 RMK AO2 SLP178 T01830094 10194 20167 56006
KOAK 182349Z 1900/2006 27014G20KT P6SM FEW012 
     FM190300 27009KT P6SM FEW015 
     FM190500 VRB05KT P6SM SCT012 
     FM191300 VRB04KT P6SM BKN011 
     FM191800 VRB04KT P6SM SCT012 SCT030 BKN050 
     FM192100 28009KT P6SM FEW015 SCT035 SCT050 
     FM200300 28010KT P6SM FEW050
       
KLVK 182353Z 27012KT 10SM CLR 18/07 A3005 RMK AO2 SLP174 T01780072 10217 20156 53002
KLVK 182349Z 1900/1924 29011KT P6SM FEW030 
     FM190500 VRB04KT P6SM FEW030 
     FM192000 29010KT P6SM FEW040 BKN150
       
KCCR 182353Z 28012KT 10SM CLR 20/06 A3003 RMK AO2 SLP154 T02000056 10222 20200 58005
KSCK 182255Z 27013KT 10SM CLR 24/07 A3001 RMK AO2 SLP160 T02440072
KSCK 182339Z 1900/1924 27011KT P6SM SKC 
     FM190800 27006KT P6SM SKC 
     FM191800 29012KT P6SM BKN250
       
KSNS 182353Z AUTO 28009KT 10SM FEW016 18/12 A3007 RMK AO2 SLP192 T01780122 10211 20167 55000
KSNS 182349Z 1900/1924 30015KT P6SM SCT025 SCT150 
     FM190400 31008KT P6SM SCT012 SCT020 SCT120 
     FM190700 VRB03KT P6SM BKN011 
     FM191100 VRB02KT P6SM SCT010 
     FM191300 00000KT P6SM FEW009 
     FM192000 27007KT P6SM SCT010 BKN150
       
KCVH 182355Z AUTO 24015G21KT 10SM 19/12 A3005 RMK A01